createdAt,value
2018-07-05T00:00:07.908Z,33.07
2018-07-05T00:02:54.266Z,34.37
2018-07-05T00:05:39.639Z,38.20
2018-07-05T00:08:25.216Z,30.50
2018-07-05T00:11:10.776Z,32.07
2018-07-05T00:13:56.351Z,28.80
2018-07-05T00:16:41.671Z,33.80
2018-07-05T00:19:27.180Z,35.57
2018-07-05T00:22:12.758Z,33.30
2018-07-05T00:24:58.263Z,33.23
2018-07-05T00:27:43.986Z,33.70
2018-07-05T00:30:29.403Z,31.80
2018-07-05T00:33:14.939Z,29.90
2018-07-05T00:36:02.799Z,38.00
2018-07-05T00:38:48.230Z,35.67
2018-07-05T00:41:33.708Z,36.10
2018-07-05T00:44:19.083Z,34.37
2018-07-05T00:47:04.611Z,31.30
2018-07-05T00:49:50.028Z,30.20
2018-07-05T00:52:35.392Z,31.93
2018-07-05T00:55:20.906Z,33.10
2018-07-05T00:58:06.668Z,29.23
2018-07-05T01:00:51.946Z,28.23
2018-07-05T01:03:37.642Z,29.53
2018-07-05T01:06:23.007Z,29.70
2018-07-05T01:09:10.070Z,27.07
2018-07-05T01:11:55.457Z,31.00
2018-07-05T01:14:40.870Z,30.13
2018-07-05T01:17:26.497Z,30.73
2018-07-05T01:20:12.837Z,34.40
2018-07-05T01:22:58.248Z,38.23
2018-07-05T01:25:43.788Z,31.37
2018-07-05T01:28:29.413Z,36.83
2018-07-05T01:31:14.889Z,33.97
2018-07-05T01:34:00.887Z,31.20
2018-07-05T01:36:46.538Z,32.77
2018-07-05T01:39:32.080Z,35.57
2018-07-05T01:42:17.736Z,36.97
2018-07-05T01:45:03.291Z,35.13
2018-07-05T01:47:48.817Z,31.87
2018-07-05T01:50:34.501Z,34.53
2018-07-05T01:53:20.108Z,40.70
2018-07-05T01:56:05.562Z,34.17
2018-07-05T01:58:51.202Z,31.77
2018-07-05T02:01:36.627Z,31.20
2018-07-05T02:04:22.328Z,31.40
2018-07-05T02:07:08.098Z,30.03
2018-07-05T02:09:53.533Z,28.67
2018-07-05T02:12:38.997Z,27.70
2018-07-05T02:15:24.548Z,30.13
2018-07-05T02:18:09.900Z,31.27
2018-07-05T02:20:55.296Z,31.23
2018-07-05T02:23:40.769Z,39.97
2018-07-05T02:26:27.016Z,39.50
2018-07-05T02:29:12.444Z,31.13
2018-07-05T02:31:57.986Z,34.17
2018-07-05T02:34:43.505Z,36.87
2018-07-05T02:37:37.881Z,28.50
2018-07-05T02:40:23.426Z,35.53
2018-07-05T02:43:08.674Z,36.53
2018-07-05T02:45:54.011Z,41.20
2018-07-05T02:48:40.291Z,37.60
2018-07-05T02:51:26.433Z,34.57
2018-07-05T02:54:11.951Z,39.23
2018-07-05T02:56:57.462Z,38.33
2018-07-05T02:59:43.157Z,38.40
2018-07-05T03:02:28.639Z,43.07
2018-07-05T03:05:14.101Z,57.63
2018-07-05T03:07:59.614Z,71.20
2018-07-05T03:10:45.221Z,49.90
2018-07-05T03:13:31.023Z,60.23
2018-07-05T03:16:16.346Z,57.87
2018-07-05T03:19:01.814Z,51.07
2018-07-05T03:21:47.266Z,46.87
2018-07-05T03:24:32.873Z,45.90
2018-07-05T03:27:18.397Z,42.67
2018-07-05T03:30:03.964Z,35.73
2018-07-05T03:32:50.356Z,40.83
2018-07-05T03:35:35.875Z,39.23
2018-07-05T03:38:21.224Z,34.73
2018-07-05T03:41:06.653Z,27.73
2018-07-05T03:43:52.196Z,35.00
2018-07-05T03:46:37.696Z,45.73
2018-07-05T03:49:23.045Z,39.70
2018-07-05T03:52:08.459Z,37.40
2018-07-05T03:54:54.009Z,35.30
2018-07-05T03:57:39.586Z,34.40
2018-07-05T04:00:24.973Z,37.90
2018-07-05T04:03:10.506Z,37.83
2018-07-05T04:05:56.116Z,33.87
2018-07-05T04:08:41.658Z,39.63
2018-07-05T04:11:27.171Z,35.83
2018-07-05T04:14:12.629Z,38.53
2018-07-05T04:16:58.423Z,35.20
2018-07-05T04:19:48.448Z,32.00
2018-07-05T04:22:33.946Z,26.23
2018-07-05T04:25:19.583Z,24.37
2018-07-05T04:28:05.728Z,27.90
2018-07-05T04:30:51.413Z,32.43
2018-07-05T04:33:31.091Z,30.10
2018-07-05T04:36:16.488Z,31.50
2018-07-05T04:39:03.756Z,30.43
2018-07-05T04:41:49.321Z,34.77
2018-07-05T04:44:34.861Z,36.00
2018-07-05T04:47:20.396Z,32.67
2018-07-05T04:50:06.945Z,27.43
2018-07-05T04:52:52.488Z,30.03
2018-07-05T04:55:37.946Z,27.03
2018-07-05T04:58:23.416Z,28.73
2018-07-05T05:01:08.969Z,26.63
2018-07-05T05:03:54.423Z,27.00
2018-07-05T05:06:40.066Z,27.90
2018-07-05T05:09:25.515Z,25.90
2018-07-05T05:12:11.911Z,26.43
2018-07-05T05:14:57.357Z,25.27
2018-07-05T05:17:42.801Z,20.30
2018-07-05T05:20:28.234Z,23.60
2018-07-05T05:23:14.730Z,25.03
2018-07-05T05:26:00.131Z,24.87
2018-07-05T05:28:45.645Z,22.20
2018-07-05T05:31:31.157Z,22.63
2018-07-05T05:34:16.819Z,19.67
2018-07-05T05:37:02.353Z,25.33
2018-07-05T05:39:48.006Z,26.63
2018-07-05T05:42:33.463Z,24.73
2018-07-05T05:45:18.940Z,26.40
2018-07-05T05:48:04.312Z,26.77
2018-07-05T05:50:49.845Z,25.00
2018-07-05T05:53:35.361Z,29.23
2018-07-05T05:56:20.918Z,28.77
2018-07-05T05:59:06.417Z,25.73
2018-07-05T06:01:51.981Z,26.87
2018-07-05T06:04:37.491Z,27.63
2018-07-05T06:07:23.484Z,30.37
2018-07-05T06:10:08.955Z,25.37
2018-07-05T06:12:54.561Z,23.37
2018-07-05T06:15:40.027Z,24.40
2018-07-05T06:18:25.741Z,27.47
2018-07-05T06:21:11.246Z,26.03
2018-07-05T06:23:56.716Z,25.93
2018-07-05T06:26:42.183Z,26.77
2018-07-05T06:29:27.774Z,26.23
2018-07-05T06:32:13.369Z,23.73
2018-07-05T06:34:58.764Z,25.50
2018-07-05T06:37:44.891Z,23.15
2018-07-05T06:40:30.664Z,23.50
2018-07-05T06:43:16.314Z,25.88
2018-07-05T06:46:01.859Z,29.50
2018-07-05T06:48:47.346Z,24.23
2018-07-05T06:51:33.634Z,29.72
2018-07-05T06:54:19.186Z,24.37
2018-07-05T06:57:04.571Z,26.65
2018-07-05T06:59:54.161Z,26.50
2018-07-05T07:02:39.868Z,19.70
2018-07-05T07:05:25.738Z,19.10
2018-07-05T07:08:11.333Z,21.45
2018-07-05T07:10:56.830Z,19.20
2018-07-05T07:13:45.506Z,22.48
2018-07-05T07:16:30.909Z,19.90
2018-07-05T07:19:16.456Z,19.35
2018-07-05T07:22:02.183Z,21.33
2018-07-05T07:24:47.768Z,20.65
2018-07-05T07:27:33.811Z,20.72
2018-07-05T07:30:19.296Z,22.70
2018-07-05T07:33:04.718Z,18.37
2018-07-05T07:35:50.246Z,20.23
2018-07-05T07:38:36.284Z,22.55
2018-07-05T07:41:21.643Z,17.02
2018-07-05T07:43:48.581Z,18.37
2018-07-05T07:46:15.492Z,23.52
2018-07-05T07:48:42.310Z,20.37
2018-07-05T07:51:09.144Z,17.57
2018-07-05T07:53:40.016Z,18.42
2018-07-05T07:56:06.880Z,18.77
2018-07-05T07:58:33.664Z,19.85
2018-07-05T08:01:00.739Z,15.45
2018-07-05T08:03:27.598Z,19.50
2018-07-05T08:05:54.434Z,17.20
2018-07-05T08:08:21.277Z,17.67
2018-07-05T08:10:48.153Z,21.23
2018-07-05T08:13:15.001Z,15.53
2018-07-05T08:15:41.827Z,18.02
2018-07-05T08:18:08.663Z,20.23
2018-07-05T08:20:35.496Z,20.20
2018-07-05T08:23:02.304Z,14.43
2018-07-05T08:25:29.138Z,16.75
2018-07-05T08:27:55.966Z,14.18
2018-07-05T08:30:23.311Z,14.53
2018-07-05T08:32:50.160Z,14.50
2018-07-05T08:35:17.011Z,15.80
2018-07-05T08:37:43.880Z,17.85
2018-07-05T08:40:10.712Z,15.60
2018-07-05T08:42:37.586Z,20.10
2018-07-05T08:45:04.436Z,19.45
2018-07-05T08:47:31.294Z,17.10
2018-07-05T08:49:58.544Z,18.40
2018-07-05T08:52:25.432Z,17.32
2018-07-05T08:54:52.451Z,16.27
2018-07-05T08:57:19.289Z,20.00
2018-07-05T08:59:46.104Z,17.10
2018-07-05T09:02:12.969Z,15.18
2018-07-05T09:04:39.789Z,13.90
2018-07-05T09:07:06.699Z,14.90
2018-07-05T09:09:33.601Z,14.30
2018-07-05T09:12:00.852Z,13.95
2018-07-05T09:14:27.661Z,15.68
2018-07-05T09:16:54.470Z,17.90
2018-07-05T09:19:21.320Z,13.50
2018-07-05T09:21:48.109Z,16.95
2018-07-05T09:24:14.957Z,15.78
2018-07-05T09:26:41.925Z,12.85
2018-07-05T09:29:09.008Z,14.65
2018-07-05T09:31:35.866Z,15.25
2018-07-05T09:34:02.799Z,13.30
2018-07-05T09:36:29.619Z,11.08
2018-07-05T09:38:56.474Z,10.25
2018-07-05T09:41:23.325Z,12.73
2018-07-05T09:43:50.227Z,13.62
2018-07-05T09:46:17.538Z,10.95
2018-07-05T09:48:44.415Z,21.35
2018-07-05T09:51:11.251Z,13.00
2018-07-05T09:53:38.493Z,12.58
2018-07-05T09:56:05.393Z,15.23
2018-07-05T09:58:32.241Z,12.78
2018-07-05T10:00:59.166Z,15.60
2018-07-05T10:03:26.025Z,14.68
2018-07-05T10:05:52.866Z,21.35
2018-07-05T10:08:26.211Z,11.83
2018-07-05T10:10:53.108Z,12.33
2018-07-05T10:13:20.099Z,12.75
2018-07-05T10:15:46.846Z,14.10
2018-07-05T10:18:13.645Z,16.87
2018-07-05T10:20:40.644Z,15.18
2018-07-05T10:23:08.218Z,17.80
2018-07-05T10:25:35.131Z,18.87
2018-07-05T10:28:02.019Z,13.30
2018-07-05T10:30:47.623Z,11.03
2018-07-05T10:33:33.251Z,13.88
2018-07-05T10:36:00.085Z,14.68
2018-07-05T10:38:26.941Z,14.40
2018-07-05T10:41:12.396Z,15.63
2018-07-05T10:43:58.923Z,16.17
2018-07-05T10:46:44.326Z,12.30
2018-07-05T10:49:29.991Z,13.62
2018-07-05T10:52:15.564Z,12.13
2018-07-05T10:55:01.171Z,12.37
2018-07-05T10:57:46.784Z,14.10
2018-07-05T11:00:32.272Z,10.50
2018-07-05T11:03:17.962Z,11.30
2018-07-05T11:06:04.318Z,12.53
2018-07-05T11:08:49.934Z,15.63
2018-07-05T11:11:35.504Z,9.25
2018-07-05T11:14:20.835Z,14.55
2018-07-05T11:17:06.339Z,14.33
2018-07-05T11:19:51.846Z,10.40
2018-07-05T11:22:37.273Z,7.65
2018-07-05T11:25:22.853Z,13.08
2018-07-05T11:28:08.304Z,13.18
2018-07-05T11:30:53.846Z,8.45
2018-07-05T11:33:39.332Z,10.40
2018-07-05T11:36:24.903Z,9.43
2018-07-05T11:39:10.483Z,12.88
2018-07-05T11:41:56.064Z,9.93
2018-07-05T11:44:41.584Z,8.95
2018-07-05T11:47:27.146Z,13.48
2018-07-05T11:50:12.844Z,10.20
2018-07-05T11:52:58.459Z,9.73
2018-07-05T11:55:43.931Z,8.25
2018-07-05T11:58:29.783Z,8.65
2018-07-05T12:01:15.431Z,7.17
2018-07-05T12:04:00.725Z,6.80
2018-07-05T12:06:46.274Z,11.55
2018-07-05T12:09:32.134Z,11.88
2018-07-05T12:12:17.720Z,11.18
2018-07-05T12:15:03.321Z,7.80
2018-07-05T12:17:48.731Z,7.10
2018-07-05T12:20:34.443Z,12.13
2018-07-05T12:23:19.959Z,10.15
2018-07-05T12:26:05.595Z,12.23
2018-07-05T12:28:51.376Z,12.35
2018-07-05T12:31:37.073Z,8.78
2018-07-05T12:34:22.786Z,11.78
2018-07-05T12:37:08.338Z,9.55
2018-07-05T12:39:54.078Z,10.25
2018-07-05T12:42:39.581Z,8.23
2018-07-05T12:45:25.271Z,6.55
2018-07-05T12:48:10.838Z,9.00
2018-07-05T12:50:56.328Z,11.10
2018-07-05T12:53:42.008Z,7.90
2018-07-05T12:56:27.914Z,12.65
2018-07-05T12:59:13.436Z,8.70
2018-07-05T13:01:58.970Z,12.07
2018-07-05T13:04:44.536Z,10.45
2018-07-05T13:07:30.098Z,11.22
2018-07-05T13:10:15.600Z,9.50
2018-07-05T13:13:01.052Z,10.70
2018-07-05T13:15:46.471Z,9.10
2018-07-05T13:18:32.106Z,11.25
2018-07-05T13:21:17.566Z,8.63
2018-07-05T13:24:03.063Z,11.50
2018-07-05T13:26:48.804Z,9.95
2018-07-05T13:29:34.259Z,12.78
2018-07-05T13:32:19.841Z,9.68
2018-07-05T13:35:05.328Z,8.60
2018-07-05T13:37:51.013Z,9.33
2018-07-05T13:40:37.274Z,11.38
2018-07-05T13:43:22.911Z,10.03
2018-07-05T13:46:08.527Z,10.43
2018-07-05T13:48:54.123Z,10.90
2018-07-05T13:51:40.619Z,13.48
2018-07-05T13:54:26.009Z,12.03
2018-07-05T13:57:11.751Z,10.78
2018-07-05T13:59:57.391Z,12.10
2018-07-05T14:02:42.919Z,11.05
2018-07-05T14:05:28.311Z,12.88
2018-07-05T14:08:13.594Z,13.15
2018-07-05T14:10:59.126Z,12.33
2018-07-05T14:13:44.679Z,12.93
2018-07-05T14:16:30.199Z,13.25
2018-07-05T14:19:15.632Z,12.47
2018-07-05T14:22:01.474Z,10.48
2018-07-05T14:24:47.177Z,10.05
2018-07-05T14:27:32.896Z,12.47
2018-07-05T14:30:18.391Z,10.48
2018-07-05T14:33:03.859Z,10.18
2018-07-05T14:35:50.339Z,12.15
2018-07-05T14:38:35.916Z,8.55
2018-07-05T14:41:21.419Z,10.82
2018-07-05T14:44:07.021Z,8.63
2018-07-05T14:46:53.447Z,9.25
2018-07-05T14:49:38.924Z,10.45
2018-07-05T14:52:24.443Z,12.25
2018-07-05T14:55:09.857Z,14.90
2018-07-05T14:57:55.456Z,12.35
2018-07-05T15:00:41.139Z,11.25
2018-07-05T15:03:26.625Z,12.03
2018-07-05T15:06:12.274Z,15.58
2018-07-05T15:08:57.791Z,12.88
2018-07-05T15:11:44.204Z,10.15
2018-07-05T15:14:29.625Z,9.03
2018-07-05T15:17:15.139Z,8.98
2018-07-05T15:20:00.566Z,10.10
2018-07-05T15:22:46.109Z,14.38
2018-07-05T15:25:31.545Z,12.55
2018-07-05T15:28:17.152Z,12.25
2018-07-05T15:31:02.824Z,10.25
2018-07-05T15:33:48.296Z,10.43
2018-07-05T15:36:33.754Z,7.35
2018-07-05T15:39:19.174Z,12.18
2018-07-05T15:42:04.771Z,12.23
2018-07-05T15:44:50.508Z,11.33
2018-07-05T15:47:35.981Z,14.13
2018-07-05T15:50:21.526Z,9.65
2018-07-05T15:53:09.984Z,9.33
2018-07-05T15:55:55.432Z,13.05
2018-07-05T15:58:40.872Z,10.28
2018-07-05T16:01:26.259Z,14.47
2018-07-05T16:04:13.130Z,9.85
2018-07-05T16:06:59.009Z,10.23
2018-07-05T16:09:44.324Z,11.75
2018-07-05T16:12:29.766Z,9.55
2018-07-05T16:15:16.094Z,12.40
2018-07-05T16:18:01.719Z,10.25
2018-07-05T16:20:47.174Z,11.88
2018-07-05T16:23:32.634Z,11.80
2018-07-05T16:26:18.873Z,12.68
2018-07-05T16:29:04.423Z,10.50
2018-07-05T16:31:49.837Z,15.83
2018-07-05T16:34:36.084Z,12.10
2018-07-05T16:37:22.477Z,10.40
2018-07-05T16:40:08.051Z,12.90
2018-07-05T16:42:53.640Z,11.18
2018-07-05T16:45:39.084Z,12.88
2018-07-05T16:48:24.661Z,14.30
2018-07-05T16:51:10.263Z,13.32
2018-07-05T16:53:55.799Z,12.40
2018-07-05T16:56:41.385Z,11.88
2018-07-05T16:59:27.076Z,14.93
2018-07-05T17:02:12.424Z,19.15
2018-07-05T17:04:58.039Z,10.45
2018-07-05T17:07:43.456Z,11.88
2018-07-05T17:10:29.196Z,13.68
2018-07-05T17:13:14.607Z,13.70
2018-07-05T17:16:00.047Z,14.38
2018-07-05T17:18:45.507Z,13.40
2018-07-05T17:21:31.791Z,16.67
2018-07-05T17:24:17.291Z,15.43
2018-07-05T17:27:02.919Z,10.10
2018-07-05T17:29:48.496Z,15.83
2018-07-05T17:32:33.971Z,13.55
2018-07-05T17:35:19.716Z,11.45
2018-07-05T17:38:05.056Z,19.20
2018-07-05T17:40:50.668Z,12.33
2018-07-05T17:43:36.808Z,14.33
2018-07-05T17:46:22.224Z,15.70
2018-07-05T17:49:07.691Z,15.08
2018-07-05T17:51:53.090Z,15.60
2018-07-05T17:54:38.718Z,14.65
2018-07-05T17:57:24.989Z,14.00
2018-07-05T18:00:10.546Z,11.75
2018-07-05T18:02:55.988Z,13.53
2018-07-05T18:05:41.691Z,13.45
2018-07-05T18:08:27.103Z,14.75
2018-07-05T18:11:13.153Z,14.53
2018-07-05T18:13:58.528Z,12.70
2018-07-05T18:16:44.900Z,14.47
2018-07-05T18:19:30.598Z,15.70
2018-07-05T18:22:16.323Z,16.40
2018-07-05T18:25:01.826Z,14.10
2018-07-05T18:27:47.670Z,15.40
2018-07-05T18:30:33.108Z,14.60
2018-07-05T18:33:18.573Z,13.98
2018-07-05T18:36:04.090Z,13.88
2018-07-05T18:38:52.690Z,14.15
2018-07-05T18:41:38.356Z,17.07
2018-07-05T18:44:24.145Z,14.07
2018-07-05T18:47:09.689Z,15.50
2018-07-05T18:49:56.080Z,13.37
2018-07-05T18:52:41.484Z,13.50
2018-07-05T18:55:26.942Z,14.50
2018-07-05T18:58:12.577Z,13.10
2018-07-05T19:00:58.156Z,18.48
2018-07-05T19:03:43.648Z,16.57
2018-07-05T19:06:29.478Z,14.97
2018-07-05T19:09:15.012Z,14.85
2018-07-05T19:12:01.979Z,17.00
2018-07-05T19:14:48.846Z,14.07
2018-07-05T19:17:34.509Z,14.68
2018-07-05T19:20:20.106Z,15.57
2018-07-05T19:23:06.474Z,21.60
2018-07-05T19:25:52.056Z,19.55
2018-07-05T19:28:37.516Z,17.97
2018-07-05T19:31:23.888Z,16.60
2018-07-05T19:34:09.674Z,17.17
2018-07-05T19:36:55.334Z,19.73
2018-07-05T19:39:40.804Z,17.30
2018-07-05T19:42:26.411Z,15.00
2018-07-05T19:45:12.226Z,17.20
2018-07-05T19:47:58.224Z,15.63
2018-07-05T19:50:43.640Z,17.97
2018-07-05T19:53:23.559Z,18.10
2018-07-05T19:56:09.744Z,18.43
2018-07-05T19:58:55.189Z,17.53
2018-07-05T20:01:41.005Z,21.30
2018-07-05T20:04:27.329Z,21.83
2018-07-05T20:07:12.889Z,19.47
2018-07-05T20:09:58.610Z,20.57
2018-07-05T20:12:44.403Z,18.10
2018-07-05T20:15:30.565Z,21.07
2018-07-05T20:18:16.092Z,17.20
2018-07-05T20:21:01.299Z,19.73
2018-07-05T20:23:46.806Z,19.83
2018-07-05T20:26:32.391Z,19.77
2018-07-05T20:29:17.975Z,17.47
2018-07-05T20:32:03.641Z,18.63
2018-07-05T20:34:49.179Z,18.37
2018-07-05T20:37:35.312Z,17.43
2018-07-05T20:40:20.848Z,20.93
2018-07-05T20:43:06.460Z,19.07
2018-07-05T20:45:51.952Z,20.20
2018-07-05T20:48:37.724Z,26.40
2018-07-05T20:51:23.366Z,17.97
2018-07-05T20:54:03.164Z,19.23
2018-07-05T20:56:48.549Z,24.47
2018-07-05T20:59:34.258Z,23.50
2018-07-05T21:02:19.895Z,20.87
2018-07-05T21:05:05.323Z,23.73
2018-07-05T21:07:50.834Z,22.43
2018-07-05T21:10:36.720Z,22.73
2018-07-05T21:13:22.348Z,23.10
2018-07-05T21:16:07.785Z,21.57
2018-07-05T21:18:53.280Z,21.77
2018-07-05T21:21:38.998Z,26.13
2018-07-05T21:24:24.505Z,22.60
2018-07-05T21:27:09.936Z,22.40
2018-07-05T21:29:55.496Z,21.07
2018-07-05T21:32:41.872Z,18.60
2018-07-05T21:35:28.058Z,23.17
2018-07-05T21:38:13.846Z,24.53
2018-07-05T21:40:59.238Z,24.63
2018-07-05T21:43:45.586Z,25.20
2018-07-05T21:46:31.056Z,23.13
2018-07-05T21:49:16.484Z,26.80
2018-07-05T21:52:01.948Z,20.70
2018-07-05T21:54:47.563Z,23.10
2018-07-05T21:57:33.116Z,24.77
2018-07-05T22:00:18.711Z,28.47
2018-07-05T22:03:04.218Z,27.03
2018-07-05T22:05:49.763Z,26.97
2018-07-05T22:08:35.383Z,24.83
2018-07-05T22:11:20.706Z,24.80
2018-07-05T22:14:06.191Z,27.50
2018-07-05T22:16:58.259Z,26.60
2018-07-05T22:19:54.138Z,23.47
2018-07-05T22:22:45.193Z,21.60
2018-07-05T22:25:36.350Z,22.97
2018-07-05T22:28:27.716Z,22.17
2018-07-05T22:31:18.975Z,21.33
2018-07-05T22:34:04.383Z,21.30
2018-07-05T22:36:50.031Z,23.37
2018-07-05T22:39:35.518Z,25.07
2018-07-05T22:42:21.210Z,22.17
2018-07-05T22:45:06.650Z,20.87
2018-07-05T22:47:52.174Z,28.87
2018-07-05T22:50:37.690Z,25.97
2018-07-05T22:53:24.174Z,25.30
2018-07-05T22:56:09.680Z,29.30
2018-07-05T22:58:55.128Z,28.87
2018-07-05T23:01:40.481Z,20.27
2018-07-05T23:04:25.894Z,24.73
2018-07-05T23:07:11.358Z,24.00
2018-07-05T23:09:57.670Z,26.60
2018-07-05T23:12:43.191Z,27.10
2018-07-05T23:15:28.606Z,21.87
2018-07-05T23:18:14.038Z,21.90
2018-07-05T23:20:59.488Z,23.40
2018-07-05T23:23:45.834Z,31.13
2018-07-05T23:26:31.215Z,23.80
2018-07-05T23:29:16.725Z,28.03
2018-07-05T23:32:02.283Z,25.37
2018-07-05T23:34:47.975Z,25.13
2018-07-05T23:37:33.436Z,25.07
2018-07-05T23:40:19.004Z,25.27
2018-07-05T23:43:04.551Z,24.23
2018-07-05T23:45:50.031Z,23.20
2018-07-05T23:48:35.546Z,31.30
2018-07-05T23:51:20.966Z,26.00
2018-07-05T23:54:00.661Z,26.07
2018-07-05T23:56:46.994Z,22.77
2018-07-05T23:59:32.485Z,24.37
